createdAt,value
2022-10-19T00:02:21.601Z,17.70
2022-10-19T00:04:54.859Z,17.80
2022-10-19T00:07:27.805Z,17.80
2022-10-19T00:10:00.458Z,17.70
2022-10-19T00:12:33.945Z,17.70
2022-10-19T00:15:06.975Z,17.70
2022-10-19T00:17:40.531Z,17.70
2022-10-19T00:20:13.985Z,17.70
2022-10-19T00:22:47.066Z,17.70
2022-10-19T00:25:19.904Z,17.80
2022-10-19T00:27:53.147Z,17.90
2022-10-19T00:30:25.978Z,18.00
2022-10-19T00:32:59.126Z,18.10
2022-10-19T00:35:32.584Z,18.20
2022-10-19T00:38:05.522Z,18.20
2022-10-19T00:40:44.999Z,18.30
2022-10-19T00:43:23.870Z,18.30
2022-10-19T00:45:56.994Z,18.30
2022-10-19T00:48:35.110Z,18.20
2022-10-19T00:51:08.198Z,18.20
2022-10-19T00:53:41.460Z,18.30
2022-10-19T00:56:17.560Z,18.30
2022-10-19T00:58:50.658Z,18.40
2022-10-19T01:01:25.854Z,18.40
2022-10-19T01:03:59.199Z,18.50
2022-10-19T01:06:32.732Z,18.50
2022-10-19T01:09:05.768Z,18.50
2022-10-19T01:11:57.552Z,18.50
2022-10-19T01:14:57.625Z,18.50
2022-10-19T01:17:38.239Z,18.50
2022-10-19T01:20:22.371Z,18.50
2022-10-19T01:23:15.686Z,18.40
2022-10-19T01:26:02.408Z,18.40
2022-10-19T01:28:45.907Z,18.40
2022-10-19T01:31:52.199Z,18.50
2022-10-19T01:34:36.154Z,18.50
2022-10-19T01:37:13.627Z,18.40
2022-10-19T01:39:57.162Z,18.40
2022-10-19T01:42:40.472Z,18.40
2022-10-19T01:45:14.561Z,18.40
2022-10-19T01:48:01.260Z,18.40
2022-10-19T01:50:41.984Z,18.40
2022-10-19T01:53:17.422Z,18.40
2022-10-19T01:55:52.901Z,18.40
2022-10-19T01:58:38.039Z,18.40
2022-10-19T02:03:45.733Z,18.40
2022-10-19T02:06:19.161Z,18.40
2022-10-19T02:08:54.503Z,18.40
2022-10-19T02:11:27.832Z,18.40
2022-10-19T02:14:05.131Z,18.40
2022-10-19T02:16:45.904Z,18.40
2022-10-19T02:19:19.972Z,18.40
2022-10-19T02:21:53.990Z,18.30
2022-10-19T02:24:26.891Z,18.20
2022-10-19T02:27:00.498Z,18.20
2022-10-19T02:29:33.501Z,18.20
2022-10-19T02:32:08.205Z,18.20
2022-10-19T02:34:42.049Z,18.20
2022-10-19T02:37:15.393Z,18.20
2022-10-19T02:39:48.425Z,18.20
2022-10-19T02:42:23.292Z,18.20
2022-10-19T02:45:19.281Z,18.10
2022-10-19T02:47:54.670Z,18.10
2022-10-19T02:50:27.617Z,18.00
2022-10-19T02:53:01.799Z,18.00
2022-10-19T02:55:35.743Z,18.00
2022-10-19T02:58:09.198Z,17.90
2022-10-19T03:00:42.250Z,17.90
2022-10-19T03:03:15.376Z,17.80
2022-10-19T03:05:48.288Z,17.70
2022-10-19T03:08:21.121Z,17.70
2022-10-19T03:10:54.107Z,17.70
2022-10-19T03:13:27.251Z,17.70
2022-10-19T03:16:00.393Z,17.60
2022-10-19T03:18:34.388Z,17.60
2022-10-19T03:21:09.181Z,17.50
2022-10-19T03:23:42.712Z,17.50
2022-10-19T03:26:17.429Z,17.50
2022-10-19T03:28:50.314Z,17.50
2022-10-19T03:31:23.207Z,17.50
2022-10-19T03:33:56.269Z,17.50
2022-10-19T03:36:32.087Z,17.40
2022-10-19T03:39:07.237Z,17.40
2022-10-19T03:41:41.977Z,17.40
2022-10-19T03:44:15.956Z,17.40
2022-10-19T03:46:49.115Z,17.40
2022-10-19T03:49:22.426Z,17.40
2022-10-19T03:51:55.714Z,17.40
2022-10-19T03:54:28.645Z,17.40
2022-10-19T03:57:01.899Z,17.40
2022-10-19T03:59:35.165Z,17.30
2022-10-19T04:02:08.277Z,17.30
2022-10-19T04:04:41.193Z,17.30
2022-10-19T04:07:14.187Z,17.30
2022-10-19T04:09:47.209Z,17.30
2022-10-19T04:12:21.117Z,17.20
2022-10-19T04:14:57.352Z,17.20
2022-10-19T04:17:29.492Z,17.20
2022-10-19T04:20:02.294Z,17.20
2022-10-19T04:22:36.326Z,17.10
2022-10-19T04:25:10.264Z,17.10
2022-10-19T04:27:43.051Z,17.10
2022-10-19T04:30:19.711Z,17.20
2022-10-19T04:32:52.814Z,17.10
2022-10-19T04:35:25.735Z,17.10
2022-10-19T04:37:58.647Z,17.10
2022-10-19T04:40:31.877Z,17.10
2022-10-19T04:43:04.932Z,17.10
2022-10-19T04:45:38.895Z,17.10
2022-10-19T04:48:14.652Z,17.00
2022-10-19T04:50:45.971Z,17.00
2022-10-19T04:53:20.839Z,17.00
2022-10-19T04:55:53.733Z,17.00
2022-10-19T04:58:27.429Z,17.00
2022-10-19T05:01:00.906Z,17.00
2022-10-19T05:03:33.947Z,16.90
2022-10-19T05:06:06.653Z,16.90
2022-10-19T05:08:40.283Z,16.90
2022-10-19T05:11:17.699Z,16.90
2022-10-19T05:13:50.672Z,16.80
2022-10-19T05:16:24.955Z,16.80
2022-10-19T05:19:01.543Z,16.80
2022-10-19T05:21:34.994Z,16.80
2022-10-19T05:24:07.902Z,16.70
2022-10-19T05:26:41.051Z,16.70
2022-10-19T05:29:15.385Z,16.70
2022-10-19T05:31:48.500Z,16.70
2022-10-19T05:34:21.751Z,16.60
2022-10-19T05:36:55.131Z,16.60
2022-10-19T05:39:29.509Z,16.60
2022-10-19T05:42:02.687Z,16.60
2022-10-19T05:44:36.102Z,16.50
2022-10-19T05:47:09.124Z,16.50
2022-10-19T05:49:42.134Z,16.50
2022-10-19T05:52:15.616Z,16.50
2022-10-19T05:54:48.652Z,16.50
2022-10-19T05:57:21.791Z,16.40
2022-10-19T05:59:56.947Z,16.40
2022-10-19T06:02:29.884Z,16.40
2022-10-19T06:05:03.459Z,16.40
2022-10-19T06:07:37.571Z,16.30
2022-10-19T06:10:12.185Z,16.30
2022-10-19T06:12:45.292Z,16.30
2022-10-19T06:15:18.472Z,16.30
2022-10-19T06:17:51.465Z,16.30
2022-10-19T06:20:24.440Z,16.20
2022-10-19T06:22:57.355Z,16.20
2022-10-19T06:25:30.750Z,16.20
2022-10-19T06:28:03.927Z,16.20
2022-10-19T06:30:36.833Z,16.10
2022-10-19T06:33:09.847Z,16.10
2022-10-19T06:35:44.028Z,16.10
2022-10-19T06:38:17.076Z,16.10
2022-10-19T06:40:51.173Z,16.10
2022-10-19T06:43:24.076Z,16.10
2022-10-19T06:45:57.268Z,16.00
2022-10-19T06:48:30.066Z,16.00
2022-10-19T06:51:06.196Z,16.00
2022-10-19T06:53:38.276Z,15.90
2022-10-19T06:56:13.208Z,15.90
2022-10-19T06:58:46.009Z,15.80
2022-10-19T07:01:19.538Z,15.80
2022-10-19T07:03:53.603Z,15.70
2022-10-19T07:06:27.141Z,15.60
2022-10-19T07:09:00.057Z,15.60
2022-10-19T07:11:33.213Z,15.60
2022-10-19T07:14:06.052Z,15.50
2022-10-19T07:16:41.446Z,15.50
2022-10-19T07:19:15.403Z,15.50
2022-10-19T07:21:48.291Z,15.50
2022-10-19T07:24:22.405Z,15.40
2022-10-19T07:26:55.266Z,15.40
2022-10-19T07:29:28.272Z,15.40
2022-10-19T07:32:01.301Z,15.40
2022-10-19T07:34:41.103Z,15.40
2022-10-19T07:37:14.225Z,15.40
2022-10-19T07:39:47.197Z,15.40
2022-10-19T07:44:54.973Z,15.40
2022-10-19T07:47:27.821Z,15.40
2022-10-19T07:50:00.765Z,15.40
2022-10-19T07:52:36.713Z,15.40
2022-10-19T07:55:08.000Z,15.40
2022-10-19T07:57:43.641Z,15.40
2022-10-19T08:00:17.690Z,15.40
2022-10-19T08:03:00.154Z,15.40
2022-10-19T08:05:26.090Z,15.40
2022-10-19T08:07:59.565Z,15.40
2022-10-19T08:10:32.721Z,15.40
2022-10-19T08:13:05.370Z,15.40
2022-10-19T08:15:38.332Z,15.30
2022-10-19T08:18:14.257Z,15.30
2022-10-19T08:20:47.580Z,15.30
2022-10-19T08:23:21.109Z,15.30
2022-10-19T08:25:54.069Z,15.30
2022-10-19T08:28:26.754Z,15.30
2022-10-19T08:31:00.851Z,15.30
2022-10-19T08:33:36.357Z,15.30
2022-10-19T08:36:12.817Z,15.20
2022-10-19T08:38:46.970Z,15.20
2022-10-19T08:41:28.081Z,15.20
2022-10-19T08:44:22.186Z,15.20
2022-10-19T08:47:17.457Z,15.10
2022-10-19T08:49:50.235Z,15.10
2022-10-19T08:52:25.411Z,15.10
2022-10-19T08:55:06.524Z,15.10
2022-10-19T08:57:52.961Z,15.10
2022-10-19T09:00:42.986Z,15.10
2022-10-19T09:03:55.064Z,15.10
2022-10-19T09:06:37.613Z,15.00
2022-10-19T09:09:11.933Z,15.00
2022-10-19T09:11:49.862Z,15.00
2022-10-19T09:14:28.005Z,14.90
2022-10-19T09:17:02.619Z,14.90
2022-10-19T09:19:35.614Z,14.90
2022-10-19T09:22:28.565Z,14.90
2022-10-19T09:25:02.411Z,14.90
2022-10-19T09:27:37.231Z,14.90
2022-10-19T09:30:11.975Z,14.80
2022-10-19T09:32:45.569Z,14.80
2022-10-19T09:35:35.561Z,14.80
2022-10-19T09:38:10.259Z,14.80
2022-10-19T09:40:43.111Z,14.80
2022-10-19T09:43:17.760Z,14.70
2022-10-19T09:46:16.459Z,14.70
2022-10-19T09:48:43.223Z,14.70
2022-10-19T09:51:20.434Z,14.70
2022-10-19T09:54:01.827Z,14.70
2022-10-19T09:56:36.839Z,14.70
2022-10-19T09:59:11.491Z,14.70
2022-10-19T10:01:45.182Z,14.70
2022-10-19T10:04:22.558Z,14.70
2022-10-19T10:06:56.774Z,14.70
2022-10-19T10:09:31.813Z,14.70
2022-10-19T10:12:04.577Z,14.70
2022-10-19T10:14:44.230Z,14.70
2022-10-19T10:17:22.632Z,14.70
2022-10-19T10:20:03.240Z,14.70
2022-10-19T10:22:38.066Z,14.70
2022-10-19T10:25:13.184Z,14.60
2022-10-19T10:27:47.496Z,14.60
2022-10-19T10:30:23.487Z,14.70
2022-10-19T10:33:04.658Z,14.60
2022-10-19T10:35:39.643Z,14.60
2022-10-19T10:38:17.964Z,14.60
2022-10-19T10:40:59.358Z,14.60
2022-10-19T10:43:39.780Z,14.60
2022-10-19T10:46:14.448Z,14.60
2022-10-19T10:48:52.686Z,14.60
2022-10-19T10:51:52.990Z,14.60
2022-10-19T10:54:33.164Z,14.50
2022-10-19T10:57:14.772Z,14.50
2022-10-19T11:00:12.984Z,14.50
2022-10-19T11:02:53.874Z,14.50
2022-10-19T11:05:43.819Z,14.50
2022-10-19T11:08:38.100Z,14.50
2022-10-19T11:11:18.875Z,14.50
2022-10-19T11:14:00.079Z,14.50
2022-10-19T11:16:38.105Z,14.50
2022-10-19T11:19:24.777Z,14.50
2022-10-19T11:22:05.279Z,14.50
2022-10-19T11:24:46.317Z,14.50
2022-10-19T11:27:40.443Z,14.50
2022-10-19T11:30:24.098Z,14.50
2022-10-19T11:33:24.789Z,14.50
2022-10-19T11:36:00.243Z,14.50
2022-10-19T11:38:51.324Z,14.50
2022-10-19T11:41:35.256Z,14.50
2022-10-19T11:44:35.974Z,14.50
2022-10-19T11:47:20.400Z,14.50
2022-10-19T11:50:21.019Z,14.50
2022-10-19T11:53:19.021Z,14.40
2022-10-19T11:55:56.376Z,14.40
2022-10-19T11:58:55.153Z,14.40
2022-10-19T12:01:32.892Z,14.30
2022-10-19T12:04:17.125Z,14.30
2022-10-19T12:07:01.184Z,14.30
2022-10-19T12:09:54.399Z,14.30
2022-10-19T12:12:33.044Z,14.30
2022-10-19T12:15:10.946Z,14.30
2022-10-19T12:17:45.827Z,14.30
2022-10-19T12:20:41.526Z,14.30
2022-10-19T12:23:23.400Z,14.30
2022-10-19T12:25:58.248Z,14.20
2022-10-19T12:28:33.020Z,14.20
2022-10-19T12:31:07.897Z,14.30
2022-10-19T12:33:46.735Z,14.20
2022-10-19T12:36:27.638Z,14.20
2022-10-19T12:39:18.457Z,14.20
2022-10-19T12:41:56.570Z,14.20
2022-10-19T12:44:49.404Z,14.20
2022-10-19T12:47:23.503Z,14.20
2022-10-19T12:49:58.405Z,14.20
2022-10-19T12:52:51.743Z,14.20
2022-10-19T12:55:27.208Z,14.20
2022-10-19T12:58:07.566Z,14.20
2022-10-19T13:00:42.273Z,14.20
2022-10-19T13:03:27.671Z,14.20
2022-10-19T13:06:08.346Z,14.20
2022-10-19T13:08:52.078Z,14.10
2022-10-19T13:11:25.401Z,14.10
2022-10-19T13:14:06.531Z,14.10
2022-10-19T13:16:41.593Z,14.10
2022-10-19T13:19:22.586Z,14.10
2022-10-19T13:22:06.571Z,14.10
2022-10-19T13:27:30.633Z,14.10
2022-10-19T13:30:03.709Z,14.00
2022-10-19T13:32:55.338Z,14.10
2022-10-19T13:35:41.223Z,14.10
2022-10-19T13:38:26.190Z,14.00
2022-10-19T13:41:07.583Z,14.00
2022-10-19T13:43:54.516Z,14.00
2022-10-19T13:46:41.490Z,14.00
2022-10-19T13:49:32.728Z,14.00
2022-10-19T13:52:26.343Z,13.90
2022-10-19T13:55:16.602Z,13.90
2022-10-19T13:58:00.620Z,14.00
2022-10-19T14:00:51.632Z,14.00
2022-10-19T14:03:35.902Z,14.00
2022-10-19T14:06:11.371Z,14.00
2022-10-19T14:08:52.599Z,13.90
2022-10-19T14:11:40.019Z,13.90
2022-10-19T14:14:20.782Z,13.90
2022-10-19T14:17:05.197Z,13.90
2022-10-19T14:19:48.615Z,13.90
2022-10-19T14:22:35.809Z,13.90
2022-10-19T14:25:28.437Z,13.90
2022-10-19T14:28:06.146Z,13.90
2022-10-19T14:30:39.749Z,13.90
2022-10-19T14:33:15.789Z,13.90
2022-10-19T14:35:51.881Z,13.90
2022-10-19T14:38:32.789Z,13.90
2022-10-19T14:41:06.056Z,13.90
2022-10-19T14:43:39.484Z,13.90
2022-10-19T14:46:16.963Z,13.90
2022-10-19T14:48:54.328Z,13.90
2022-10-19T14:51:40.638Z,13.90
2022-10-19T14:54:21.210Z,13.90
2022-10-19T14:56:58.688Z,13.90
2022-10-19T14:59:39.529Z,13.90
2022-10-19T15:02:26.861Z,13.90
2022-10-19T15:05:01.606Z,13.90
2022-10-19T15:07:46.333Z,13.90
2022-10-19T15:10:35.783Z,13.90
2022-10-19T15:13:10.033Z,13.90
2022-10-19T15:15:45.219Z,13.90
2022-10-19T15:18:44.156Z,13.90
2022-10-19T15:21:12.456Z,13.90
2022-10-19T15:23:55.828Z,13.90
2022-10-19T15:26:33.551Z,13.90
2022-10-19T15:29:15.286Z,13.90
2022-10-19T15:31:48.443Z,13.90
2022-10-19T15:34:26.403Z,13.90
2022-10-19T15:37:01.567Z,13.90
2022-10-19T15:39:42.301Z,13.90
2022-10-19T15:42:36.691Z,13.90
2022-10-19T15:45:12.193Z,13.90
2022-10-19T15:47:47.387Z,13.90
2022-10-19T15:50:22.437Z,13.90
2022-10-19T15:52:55.351Z,13.90
2022-10-19T15:55:28.134Z,13.90
2022-10-19T15:58:04.257Z,13.90
2022-10-19T16:00:37.437Z,13.90
2022-10-19T16:03:11.000Z,13.90
2022-10-19T16:05:44.230Z,13.90
2022-10-19T16:08:17.275Z,13.90
2022-10-19T16:10:50.091Z,13.90
2022-10-19T16:13:23.036Z,13.80
2022-10-19T16:16:10.098Z,13.80
2022-10-19T16:18:31.011Z,13.80
2022-10-19T16:21:03.963Z,13.80
2022-10-19T16:23:42.379Z,13.80
2022-10-19T16:26:17.256Z,13.80
2022-10-19T16:28:50.697Z,13.80
2022-10-19T16:31:23.931Z,13.70
2022-10-19T16:33:56.924Z,13.70
2022-10-19T16:36:31.098Z,13.70
2022-10-19T16:39:06.590Z,13.70
2022-10-19T16:41:39.788Z,13.70
2022-10-19T16:44:14.212Z,13.70
2022-10-19T16:46:47.301Z,13.70
2022-10-19T16:49:20.468Z,13.70
2022-10-19T16:51:56.465Z,13.70
2022-10-19T16:54:29.467Z,13.70
2022-10-19T16:57:09.765Z,13.70
2022-10-19T16:59:40.940Z,13.70
2022-10-19T17:02:14.774Z,13.70
2022-10-19T17:04:48.270Z,13.70
2022-10-19T17:07:23.916Z,13.70
2022-10-19T17:09:57.030Z,13.70
2022-10-19T17:12:29.959Z,13.70
2022-10-19T17:15:37.181Z,13.70
2022-10-19T17:17:38.140Z,13.70
2022-10-19T17:20:13.275Z,13.70
2022-10-19T17:22:46.308Z,13.70
2022-10-19T17:25:19.364Z,13.70
2022-10-19T17:27:56.093Z,13.70
2022-10-19T17:30:29.138Z,13.70
2022-10-19T17:33:02.191Z,13.70
2022-10-19T17:35:36.079Z,13.70
2022-10-19T17:38:09.188Z,13.70
2022-10-19T17:40:42.173Z,13.70
2022-10-19T17:43:15.181Z,13.70
2022-10-19T17:45:47.994Z,13.70
2022-10-19T17:48:21.041Z,13.60
2022-10-19T17:51:08.079Z,13.60
2022-10-19T17:53:41.049Z,13.60
2022-10-19T17:56:15.512Z,13.60
2022-10-19T17:58:49.040Z,13.60
2022-10-19T18:01:23.461Z,13.70
2022-10-19T18:03:56.494Z,13.70
2022-10-19T18:06:31.653Z,13.70
2022-10-19T18:09:05.651Z,13.70
2022-10-19T18:11:40.729Z,13.70
2022-10-19T18:14:15.141Z,13.70
2022-10-19T18:16:49.232Z,13.70
2022-10-19T18:19:22.114Z,13.70
2022-10-19T18:21:55.283Z,13.70
2022-10-19T18:24:28.398Z,13.70
2022-10-19T18:27:01.235Z,13.70
2022-10-19T18:29:34.081Z,13.70
2022-10-19T18:34:39.948Z,13.80
2022-10-19T18:37:12.939Z,13.80
2022-10-19T18:39:46.660Z,13.80
2022-10-19T18:42:19.738Z,13.90
2022-10-19T18:44:52.699Z,13.90
2022-10-19T18:47:25.633Z,14.00
2022-10-19T18:49:59.385Z,14.00
2022-10-19T18:52:32.489Z,14.10
2022-10-19T18:55:05.488Z,14.10
2022-10-19T18:57:38.615Z,14.10
2022-10-19T19:00:12.691Z,14.20
2022-10-19T19:02:47.339Z,14.20
2022-10-19T19:05:19.717Z,14.30
2022-10-19T19:07:52.787Z,14.40
2022-10-19T19:10:26.053Z,14.50
2022-10-19T19:12:59.031Z,14.50
2022-10-19T19:15:31.989Z,14.60
2022-10-19T19:18:05.020Z,14.70
2022-10-19T19:20:38.131Z,14.70
2022-10-19T19:23:11.185Z,14.80
2022-10-19T19:25:46.171Z,14.80
2022-10-19T19:28:19.545Z,14.90
2022-10-19T19:30:52.579Z,14.90
2022-10-19T19:33:25.675Z,14.90
2022-10-19T19:35:58.624Z,14.90
2022-10-19T19:38:31.858Z,15.00
2022-10-19T19:41:09.795Z,15.10
2022-10-19T19:43:43.545Z,15.10
2022-10-19T19:46:18.489Z,15.10
2022-10-19T19:48:52.067Z,15.20
2022-10-19T19:51:25.662Z,15.20
2022-10-19T19:53:58.972Z,15.20
2022-10-19T19:56:31.713Z,15.20
2022-10-19T19:59:05.572Z,15.30
2022-10-19T20:01:40.481Z,15.40
2022-10-19T20:04:15.002Z,15.50
2022-10-19T20:06:48.235Z,15.60
2022-10-19T20:09:21.377Z,15.70
2022-10-19T20:11:54.414Z,15.70
2022-10-19T20:14:30.175Z,15.70
2022-10-19T20:17:03.248Z,15.80
2022-10-19T20:19:35.983Z,15.90
2022-10-19T20:22:09.037Z,16.00
2022-10-19T20:24:42.313Z,16.10
2022-10-19T20:27:15.410Z,16.20
2022-10-19T20:29:48.398Z,16.30
2022-10-19T20:32:25.125Z,16.30
2022-10-19T20:34:58.111Z,16.40
2022-10-19T20:37:32.187Z,16.50
2022-10-19T20:40:08.759Z,16.50
2022-10-19T20:42:47.253Z,16.60
2022-10-19T20:45:20.705Z,16.70
2022-10-19T20:47:53.677Z,16.70
2022-10-19T20:50:26.635Z,16.80
2022-10-19T20:52:59.882Z,16.80
2022-10-19T20:55:33.161Z,16.90
2022-10-19T20:58:06.302Z,17.00
2022-10-19T21:00:39.257Z,17.00
2022-10-19T21:03:12.248Z,17.00
2022-10-19T21:05:45.296Z,17.10
2022-10-19T21:08:18.774Z,17.10
2022-10-19T21:10:51.746Z,17.10
2022-10-19T21:13:24.718Z,17.10
2022-10-19T21:15:57.770Z,17.20
2022-10-19T21:18:30.728Z,17.20
2022-10-19T21:21:03.678Z,17.20
2022-10-19T21:23:37.454Z,17.20
2022-10-19T21:26:10.432Z,17.30
2022-10-19T21:28:43.785Z,17.30
2022-10-19T21:31:16.964Z,17.40
2022-10-19T21:33:49.755Z,17.50
2022-10-19T21:36:32.534Z,17.50
2022-10-19T21:39:05.525Z,17.60
2022-10-19T21:41:38.302Z,17.50
2022-10-19T21:44:11.184Z,17.60
2022-10-19T21:46:45.263Z,17.60
2022-10-19T21:49:18.492Z,17.80
2022-10-19T21:51:59.744Z,17.80
2022-10-19T21:54:32.643Z,17.90
2022-10-19T21:57:05.594Z,17.90
2022-10-19T21:59:38.652Z,18.00
2022-10-19T22:02:11.791Z,18.10
2022-10-19T22:04:44.822Z,18.10
2022-10-19T22:07:19.106Z,18.20
2022-10-19T22:09:51.943Z,18.20
2022-10-19T22:12:25.079Z,18.30
2022-10-19T22:14:58.207Z,18.40
2022-10-19T22:17:32.100Z,18.50
2022-10-19T22:20:05.264Z,18.50
2022-10-19T22:22:38.671Z,18.60
2022-10-19T22:25:12.218Z,18.70
2022-10-19T22:27:45.254Z,18.80
2022-10-19T22:30:18.123Z,18.90
2022-10-19T22:32:51.086Z,19.00
2022-10-19T22:35:24.237Z,19.00
2022-10-19T22:37:57.369Z,19.00
2022-10-19T22:40:30.628Z,19.00
2022-10-19T22:43:55.964Z,19.00
2022-10-19T22:47:21.017Z,19.00
2022-10-19T22:50:46.213Z,19.00
2022-10-19T22:53:19.131Z,18.90
2022-10-19T22:55:52.029Z,18.80
2022-10-19T22:58:24.817Z,18.80
2022-10-19T23:01:14.335Z,18.80
2022-10-19T23:03:47.265Z,18.80
2022-10-19T23:06:21.296Z,18.70
2022-10-19T23:08:54.391Z,18.70
2022-10-19T23:11:27.383Z,18.80
2022-10-19T23:14:04.647Z,18.80
2022-10-19T23:16:37.447Z,18.80
2022-10-19T23:19:10.311Z,18.90
2022-10-19T23:21:43.075Z,19.00
2022-10-19T23:24:15.877Z,19.00
2022-10-19T23:26:48.646Z,19.10
2022-10-19T23:29:21.413Z,19.10
2022-10-19T23:31:54.248Z,19.20
2022-10-19T23:34:27.037Z,19.20
2022-10-19T23:36:59.545Z,19.20
2022-10-19T23:39:32.414Z,19.30
2022-10-19T23:42:05.303Z,19.30
2022-10-19T23:44:38.773Z,19.30
2022-10-19T23:47:11.610Z,19.30
2022-10-19T23:49:44.435Z,19.30
2022-10-19T23:52:17.441Z,19.40
2022-10-19T23:54:50.368Z,19.40
2022-10-19T23:57:23.262Z,19.50
2022-10-19T23:59:56.347Z,19.50
